sensor_id;sensor_type;location;lat;lon;timestamp;P1;durP1;ratioP1;P2;durP2;ratioP2
8151;SDS011;4117;53.622;9.958;2022-10-19T00:01:23;0.00;;;0.00;;
8151;SDS011;4117;53.622;9.958;2022-10-19T00:03:50;0.10;;;0.10;;
8151;SDS011;4117;53.622;9.958;2022-10-19T00:06:19;0.00;;;0.00;;
8151;SDS011;4117;53.622;9.958;2022-10-19T00:08:51;0.00;;;0.00;;
8151;SDS011;4117;53.622;9.958;2022-10-19T00:11:18;0.00;;;0.00;;
8151;SDS011;4117;53.622;9.958;2022-10-19T00:13:45;0.10;;;0.10;;
8151;SDS011;4117;53.622;9.958;2022-10-19T00:16:12;0.00;;;0.00;;
8151;SDS011;4117;53.622;9.958;2022-10-19T00:18:40;0.03;;;0.03;;
8151;SDS011;4117;53.622;9.958;2022-10-19T00:21:09;0.07;;;0.07;;
8151;SDS011;4117;53.622;9.958;2022-10-19T00:23:38;0.00;;;0.00;;
8151;SDS011;4117;53.622;9.958;2022-10-19T00:26:07;0.00;;;0.00;;
8151;SDS011;4117;53.622;9.958;2022-10-19T00:28:34;0.00;;;0.00;;
8151;SDS011;4117;53.622;9.958;2022-10-19T00:31:02;0.00;;;0.00;;
8151;SDS011;4117;53.622;9.958;2022-10-19T00:33:30;0.00;;;0.00;;
8151;SDS011;4117;53.622;9.958;2022-10-19T00:35:57;0.10;;;0.10;;
8151;SDS011;4117;53.622;9.958;2022-10-19T00:38:23;0.20;;;0.20;;
8151;SDS011;4117;53.622;9.958;2022-10-19T00:40:50;0.10;;;0.10;;
8151;SDS011;4117;53.622;9.958;2022-10-19T00:43:19;0.00;;;0.00;;
8151;SDS011;4117;53.622;9.958;2022-10-19T00:45:47;0.00;;;0.00;;
8151;SDS011;4117;53.622;9.958;2022-10-19T00:48:15;0.07;;;0.07;;
8151;SDS011;4117;53.622;9.958;2022-10-19T00:50:45;0.00;;;0.00;;
8151;SDS011;4117;53.622;9.958;2022-10-19T00:53:14;0.00;;;0.00;;
8151;SDS011;4117;53.622;9.958;2022-10-19T00:55:42;0.00;;;0.00;;
8151;SDS011;4117;53.622;9.958;2022-10-19T00:58:09;0.00;;;0.00;;
8151;SDS011;4117;53.622;9.958;2022-10-19T01:00:37;0.00;;;0.00;;
8151;SDS011;4117;53.622;9.958;2022-10-19T01:03:04;0.00;;;0.00;;
8151;SDS011;4117;53.622;9.958;2022-10-19T01:05:33;0.30;;;0.20;;
8151;SDS011;4117;53.622;9.958;2022-10-19T01:08:00;0.00;;;0.00;;
8151;SDS011;4117;53.622;9.958;2022-10-19T01:10:30;0.03;;;0.03;;
8151;SDS011;4117;53.622;9.958;2022-10-19T01:13:11;0.00;;;0.00;;
8151;SDS011;4117;53.622;9.958;2022-10-19T01:15:51;0.10;;;0.10;;
8151;SDS011;4117;53.622;9.958;2022-10-19T01:18:24;0.00;;;0.00;;
8151;SDS011;4117;53.622;9.958;2022-10-19T01:21:02;0.00;;;0.00;;
8151;SDS011;4117;53.622;9.958;2022-10-19T01:30:08;0.20;;;0.20;;
8151;SDS011;4117;53.622;9.958;2022-10-19T01:32:47;0.00;;;0.00;;
8151;SDS011;4117;53.622;9.958;2022-10-19T01:35:33;0.00;;;0.00;;
8151;SDS011;4117;53.622;9.958;2022-10-19T01:38:06;0.00;;;0.00;;
8151;SDS011;4117;53.622;9.958;2022-10-19T01:40:40;0.00;;;0.00;;
8151;SDS011;4117;53.622;9.958;2022-10-19T01:43:15;0.00;;;0.00;;
8151;SDS011;4117;53.622;9.958;2022-10-19T01:45:51;0.00;;;0.00;;
8151;SDS011;4117;53.622;9.958;2022-10-19T01:48:24;0.10;;;0.10;;
8151;SDS011;4117;53.622;9.958;2022-10-19T01:50:55;0.00;;;0.00;;
8151;SDS011;4117;53.622;9.958;2022-10-19T01:53:25;0.00;;;0.00;;
8151;SDS011;4117;53.622;9.958;2022-10-19T01:55:55;0.13;;;0.13;;
8151;SDS011;4117;53.622;9.958;2022-10-19T01:58:27;0.00;;;0.00;;
8151;SDS011;4117;53.622;9.958;2022-10-19T02:00:59;0.00;;;0.00;;
8151;SDS011;4117;53.622;9.958;2022-10-19T02:03:29;0.00;;;0.00;;
8151;SDS011;4117;53.622;9.958;2022-10-19T02:05:57;0.00;;;0.00;;
8151;SDS011;4117;53.622;9.958;2022-10-19T02:08:27;0.10;;;0.10;;
8151;SDS011;4117;53.622;9.958;2022-10-19T02:10:56;0.00;;;0.00;;
8151;SDS011;4117;53.622;9.958;2022-10-19T02:13:24;0.00;;;0.00;;
8151;SDS011;4117;53.622;9.958;2022-10-19T02:15:53;0.03;;;0.03;;
8151;SDS011;4117;53.622;9.958;2022-10-19T02:18:27;0.00;;;0.00;;
8151;SDS011;4117;53.622;9.958;2022-10-19T02:20:56;0.00;;;0.00;;
8151;SDS011;4117;53.622;9.958;2022-10-19T02:23:25;0.00;;;0.00;;
8151;SDS011;4117;53.622;9.958;2022-10-19T02:25:52;0.10;;;0.10;;
8151;SDS011;4117;53.622;9.958;2022-10-19T02:28:20;3.30;;;0.20;;
8151;SDS011;4117;53.622;9.958;2022-10-19T02:30:48;0.00;;;0.00;;
8151;SDS011;4117;53.622;9.958;2022-10-19T02:33:15;0.00;;;0.00;;
8151;SDS011;4117;53.622;9.958;2022-10-19T02:35:43;0.10;;;0.10;;
8151;SDS011;4117;53.622;9.958;2022-10-19T02:38:10;0.10;;;0.10;;
8151;SDS011;4117;53.622;9.958;2022-10-19T02:40:41;0.00;;;0.00;;
8151;SDS011;4117;53.622;9.958;2022-10-19T02:43:13;0.00;;;0.00;;
8151;SDS011;4117;53.622;9.958;2022-10-19T02:45:44;0.00;;;0.00;;
8151;SDS011;4117;53.622;9.958;2022-10-19T02:48:17;0.00;;;0.00;;
8151;SDS011;4117;53.622;9.958;2022-10-19T02:50:48;0.00;;;0.00;;
8151;SDS011;4117;53.622;9.958;2022-10-19T02:53:16;0.10;;;0.10;;
8151;SDS011;4117;53.622;9.958;2022-10-19T02:55:43;0.00;;;0.00;;
8151;SDS011;4117;53.622;9.958;2022-10-19T02:58:12;0.00;;;0.00;;
8151;SDS011;4117;53.622;9.958;2022-10-19T03:00:39;0.20;;;0.10;;
8151;SDS011;4117;53.622;9.958;2022-10-19T03:03:07;0.00;;;0.00;;
8151;SDS011;4117;53.622;9.958;2022-10-19T03:05:34;0.00;;;0.00;;
8151;SDS011;4117;53.622;9.958;2022-10-19T03:08:03;0.10;;;0.00;;
8151;SDS011;4117;53.622;9.958;2022-10-19T03:10:30;0.00;;;0.00;;
8151;SDS011;4117;53.622;9.958;2022-10-19T03:12:57;0.00;;;0.00;;
8151;SDS011;4117;53.622;9.958;2022-10-19T03:15:24;0.10;;;0.10;;
8151;SDS011;4117;53.622;9.958;2022-10-19T03:17:53;0.00;;;0.00;;
8151;SDS011;4117;53.622;9.958;2022-10-19T03:20:20;0.00;;;0.00;;
8151;SDS011;4117;53.622;9.958;2022-10-19T03:22:47;0.00;;;0.00;;
8151;SDS011;4117;53.622;9.958;2022-10-19T03:25:16;0.00;;;0.00;;
8151;SDS011;4117;53.622;9.958;2022-10-19T03:27:42;0.00;;;0.00;;
8151;SDS011;4117;53.622;9.958;2022-10-19T03:30:09;0.10;;;0.10;;
8151;SDS011;4117;53.622;9.958;2022-10-19T03:32:36;0.00;;;0.00;;
8151;SDS011;4117;53.622;9.958;2022-10-19T03:35:03;0.30;;;0.30;;
8151;SDS011;4117;53.622;9.958;2022-10-19T03:37:31;0.00;;;0.00;;
8151;SDS011;4117;53.622;9.958;2022-10-19T03:39:57;0.00;;;0.00;;
8151;SDS011;4117;53.622;9.958;2022-10-19T03:42:25;0.00;;;0.00;;
8151;SDS011;4117;53.622;9.958;2022-10-19T03:44:52;0.00;;;0.00;;
8151;SDS011;4117;53.622;9.958;2022-10-19T03:47:19;0.10;;;0.10;;
8151;SDS011;4117;53.622;9.958;2022-10-19T03:49:46;0.00;;;0.00;;
8151;SDS011;4117;53.622;9.958;2022-10-19T03:52:14;0.00;;;0.00;;
8151;SDS011;4117;53.622;9.958;2022-10-19T03:54:41;0.00;;;0.00;;
8151;SDS011;4117;53.622;9.958;2022-10-19T03:57:08;0.00;;;0.00;;
8151;SDS011;4117;53.622;9.958;2022-10-19T03:59:36;0.53;;;0.43;;
8151;SDS011;4117;53.622;9.958;2022-10-19T04:02:03;0.00;;;0.00;;
8151;SDS011;4117;53.622;9.958;2022-10-19T04:04:29;0.00;;;0.00;;
8151;SDS011;4117;53.622;9.958;2022-10-19T04:06:56;0.10;;;0.10;;
8151;SDS011;4117;53.622;9.958;2022-10-19T04:09:23;0.10;;;0.10;;
8151;SDS011;4117;53.622;9.958;2022-10-19T04:11:50;0.00;;;0.00;;
8151;SDS011;4117;53.622;9.958;2022-10-19T04:14:17;0.00;;;0.00;;
8151;SDS011;4117;53.622;9.958;2022-10-19T04:16:46;0.00;;;0.00;;
8151;SDS011;4117;53.622;9.958;2022-10-19T04:19:13;0.00;;;0.00;;
8151;SDS011;4117;53.622;9.958;2022-10-19T04:21:41;0.00;;;0.00;;
8151;SDS011;4117;53.622;9.958;2022-10-19T04:24:09;0.40;;;0.10;;
8151;SDS011;4117;53.622;9.958;2022-10-19T04:26:38;0.43;;;0.20;;
8151;SDS011;4117;53.622;9.958;2022-10-19T04:29:07;0.00;;;0.00;;
8151;SDS011;4117;53.622;9.958;2022-10-19T04:31:34;0.77;;;0.30;;
8151;SDS011;4117;53.622;9.958;2022-10-19T04:34:03;0.00;;;0.00;;
8151;SDS011;4117;53.622;9.958;2022-10-19T04:36:30;0.00;;;0.00;;
8151;SDS011;4117;53.622;9.958;2022-10-19T04:38:57;0.00;;;0.00;;
8151;SDS011;4117;53.622;9.958;2022-10-19T04:41:24;0.37;;;0.20;;
8151;SDS011;4117;53.622;9.958;2022-10-19T04:43:53;0.03;;;0.03;;
8151;SDS011;4117;53.622;9.958;2022-10-19T04:46:22;0.00;;;0.00;;
8151;SDS011;4117;53.622;9.958;2022-10-19T04:48:49;0.00;;;0.00;;
8151;SDS011;4117;53.622;9.958;2022-10-19T04:51:17;0.00;;;0.00;;
8151;SDS011;4117;53.622;9.958;2022-10-19T04:53:45;0.20;;;0.20;;
8151;SDS011;4117;53.622;9.958;2022-10-19T04:56:14;0.00;;;0.00;;
8151;SDS011;4117;53.622;9.958;2022-10-19T04:58:42;0.00;;;0.00;;
8151;SDS011;4117;53.622;9.958;2022-10-19T05:01:10;0.00;;;0.00;;
8151;SDS011;4117;53.622;9.958;2022-10-19T05:03:37;0.63;;;0.20;;
8151;SDS011;4117;53.622;9.958;2022-10-19T05:06:05;0.13;;;0.13;;
8151;SDS011;4117;53.622;9.958;2022-10-19T05:08:33;0.00;;;0.00;;
8151;SDS011;4117;53.622;9.958;2022-10-19T05:11:01;0.17;;;0.17;;
8151;SDS011;4117;53.622;9.958;2022-10-19T05:13:29;0.00;;;0.00;;
8151;SDS011;4117;53.622;9.958;2022-10-19T05:15:58;0.00;;;0.00;;
8151;SDS011;4117;53.622;9.958;2022-10-19T05:18:26;0.03;;;0.03;;
8151;SDS011;4117;53.622;9.958;2022-10-19T05:20:59;0.00;;;0.00;;
8151;SDS011;4117;53.622;9.958;2022-10-19T05:23:27;0.07;;;0.07;;
8151;SDS011;4117;53.622;9.958;2022-10-19T05:25:59;0.00;;;0.00;;
8151;SDS011;4117;53.622;9.958;2022-10-19T05:28:27;0.07;;;0.07;;
8151;SDS011;4117;53.622;9.958;2022-10-19T05:30:54;0.10;;;0.10;;
8151;SDS011;4117;53.622;9.958;2022-10-19T05:33:21;0.00;;;0.00;;
8151;SDS011;4117;53.622;9.958;2022-10-19T05:35:48;1.15;;;0.30;;
8151;SDS011;4117;53.622;9.958;2022-10-19T05:38:15;0.37;;;0.20;;
8151;SDS011;4117;53.622;9.958;2022-10-19T05:40:44;0.10;;;0.10;;
8151;SDS011;4117;53.622;9.958;2022-10-19T05:43:12;1.15;;;0.40;;
8151;SDS011;4117;53.622;9.958;2022-10-19T05:45:39;0.10;;;0.10;;
8151;SDS011;4117;53.622;9.958;2022-10-19T05:48:06;0.10;;;0.10;;
8151;SDS011;4117;53.622;9.958;2022-10-19T05:50:33;0.17;;;0.17;;
8151;SDS011;4117;53.622;9.958;2022-10-19T05:52:59;0.00;;;0.00;;
8151;SDS011;4117;53.622;9.958;2022-10-19T05:55:26;0.00;;;0.00;;
8151;SDS011;4117;53.622;9.958;2022-10-19T05:57:53;0.00;;;0.00;;
8151;SDS011;4117;53.622;9.958;2022-10-19T06:00:21;0.20;;;0.20;;
8151;SDS011;4117;53.622;9.958;2022-10-19T06:02:48;0.57;;;0.30;;
8151;SDS011;4117;53.622;9.958;2022-10-19T06:05:14;0.00;;;0.00;;
8151;SDS011;4117;53.622;9.958;2022-10-19T06:07:41;0.10;;;0.10;;
8151;SDS011;4117;53.622;9.958;2022-10-19T06:10:08;0.70;;;0.27;;
8151;SDS011;4117;53.622;9.958;2022-10-19T06:12:35;0.10;;;0.10;;
8151;SDS011;4117;53.622;9.958;2022-10-19T06:15:02;0.30;;;0.10;;
8151;SDS011;4117;53.622;9.958;2022-10-19T06:17:31;0.00;;;0.00;;
8151;SDS011;4117;53.622;9.958;2022-10-19T06:19:58;0.13;;;0.10;;
8151;SDS011;4117;53.622;9.958;2022-10-19T06:22:24;0.00;;;0.00;;
8151;SDS011;4117;53.622;9.958;2022-10-19T06:24:51;0.03;;;0.03;;
8151;SDS011;4117;53.622;9.958;2022-10-19T06:27:18;0.00;;;0.00;;
8151;SDS011;4117;53.622;9.958;2022-10-19T06:29:45;0.27;;;0.20;;
8151;SDS011;4117;53.622;9.958;2022-10-19T06:32:13;0.00;;;0.00;;
8151;SDS011;4117;53.622;9.958;2022-10-19T06:34:42;0.10;;;0.10;;
8151;SDS011;4117;53.622;9.958;2022-10-19T06:37:08;0.83;;;0.20;;
8151;SDS011;4117;53.622;9.958;2022-10-19T06:39:35;0.17;;;0.10;;
8151;SDS011;4117;53.622;9.958;2022-10-19T06:42:02;0.10;;;0.10;;
8151;SDS011;4117;53.622;9.958;2022-10-19T06:44:29;0.00;;;0.00;;
8151;SDS011;4117;53.622;9.958;2022-10-19T06:46:56;0.10;;;0.10;;
8151;SDS011;4117;53.622;9.958;2022-10-19T06:49:22;0.03;;;0.00;;
8151;SDS011;4117;53.622;9.958;2022-10-19T06:51:50;0.00;;;0.00;;
8151;SDS011;4117;53.622;9.958;2022-10-19T06:54:17;0.10;;;0.10;;
8151;SDS011;4117;53.622;9.958;2022-10-19T06:56:44;0.03;;;0.03;;
8151;SDS011;4117;53.622;9.958;2022-10-19T06:59:11;0.00;;;0.00;;
8151;SDS011;4117;53.622;9.958;2022-10-19T07:01:38;0.07;;;0.07;;
8151;SDS011;4117;53.622;9.958;2022-10-19T07:04:04;0.00;;;0.00;;
8151;SDS011;4117;53.622;9.958;2022-10-19T07:06:31;0.93;;;0.10;;
8151;SDS011;4117;53.622;9.958;2022-10-19T07:08:59;0.10;;;0.10;;
8151;SDS011;4117;53.622;9.958;2022-10-19T07:11:27;0.00;;;0.00;;
8151;SDS011;4117;53.622;9.958;2022-10-19T07:13:53;0.10;;;0.10;;
8151;SDS011;4117;53.622;9.958;2022-10-19T07:16:20;0.00;;;0.00;;
8151;SDS011;4117;53.622;9.958;2022-10-19T07:18:47;0.00;;;0.00;;
8151;SDS011;4117;53.622;9.958;2022-10-19T07:21:15;0.00;;;0.00;;
8151;SDS011;4117;53.622;9.958;2022-10-19T07:23:43;0.10;;;0.10;;
8151;SDS011;4117;53.622;9.958;2022-10-19T07:26:13;0.00;;;0.00;;
8151;SDS011;4117;53.622;9.958;2022-10-19T07:28:44;0.00;;;0.00;;
8151;SDS011;4117;53.622;9.958;2022-10-19T07:31:12;0.00;;;0.00;;
8151;SDS011;4117;53.622;9.958;2022-10-19T07:33:41;0.40;;;0.20;;
8151;SDS011;4117;53.622;9.958;2022-10-19T07:36:09;0.00;;;0.00;;
8151;SDS011;4117;53.622;9.958;2022-10-19T07:38:37;0.00;;;0.00;;
8151;SDS011;4117;53.622;9.958;2022-10-19T07:41:05;0.77;;;0.20;;
8151;SDS011;4117;53.622;9.958;2022-10-19T07:43:34;0.10;;;0.10;;
8151;SDS011;4117;53.622;9.958;2022-10-19T07:46:02;0.00;;;0.00;;
8151;SDS011;4117;53.622;9.958;2022-10-19T07:48:30;0.07;;;0.07;;
8151;SDS011;4117;53.622;9.958;2022-10-19T07:50:59;0.00;;;0.00;;
8151;SDS011;4117;53.622;9.958;2022-10-19T07:53:26;0.10;;;0.10;;
8151;SDS011;4117;53.622;9.958;2022-10-19T07:55:53;0.10;;;0.10;;
8151;SDS011;4117;53.622;9.958;2022-10-19T07:58:20;0.00;;;0.00;;
8151;SDS011;4117;53.622;9.958;2022-10-19T08:00:48;0.10;;;0.10;;
8151;SDS011;4117;53.622;9.958;2022-10-19T08:03:15;0.00;;;0.00;;
8151;SDS011;4117;53.622;9.958;2022-10-19T08:05:42;0.47;;;0.10;;
8151;SDS011;4117;53.622;9.958;2022-10-19T08:08:08;0.10;;;0.10;;
8151;SDS011;4117;53.622;9.958;2022-10-19T08:10:35;0.00;;;0.00;;
8151;SDS011;4117;53.622;9.958;2022-10-19T08:13:02;0.57;;;0.20;;
8151;SDS011;4117;53.622;9.958;2022-10-19T08:15:29;0.07;;;0.07;;
8151;SDS011;4117;53.622;9.958;2022-10-19T08:17:57;0.40;;;0.10;;
8151;SDS011;4117;53.622;9.958;2022-10-19T08:20:25;0.00;;;0.00;;
8151;SDS011;4117;53.622;9.958;2022-10-19T08:22:52;0.10;;;0.10;;
8151;SDS011;4117;53.622;9.958;2022-10-19T08:25:19;0.50;;;0.13;;
8151;SDS011;4117;53.622;9.958;2022-10-19T08:27:45;0.73;;;0.10;;
8151;SDS011;4117;53.622;9.958;2022-10-19T08:30:12;0.00;;;0.00;;
8151;SDS011;4117;53.622;9.958;2022-10-19T08:32:39;0.10;;;0.10;;
8151;SDS011;4117;53.622;9.958;2022-10-19T08:35:07;0.10;;;0.10;;
8151;SDS011;4117;53.622;9.958;2022-10-19T08:37:34;0.10;;;0.10;;
8151;SDS011;4117;53.622;9.958;2022-10-19T08:40:01;0.10;;;0.10;;
8151;SDS011;4117;53.622;9.958;2022-10-19T08:42:30;0.30;;;0.23;;
8151;SDS011;4117;53.622;9.958;2022-10-19T08:48:13;0.10;;;0.10;;
8151;SDS011;4117;53.622;9.958;2022-10-19T08:50:51;0.10;;;0.10;;
8151;SDS011;4117;53.622;9.958;2022-10-19T08:53:21;0.00;;;0.00;;
8151;SDS011;4117;53.622;9.958;2022-10-19T08:55:56;0.00;;;0.00;;
8151;SDS011;4117;53.622;9.958;2022-10-19T08:58:32;0.10;;;0.10;;
8151;SDS011;4117;53.622;9.958;2022-10-19T09:01:13;0.00;;;0.00;;
8151;SDS011;4117;53.622;9.958;2022-10-19T09:03:45;0.50;;;0.13;;
8151;SDS011;4117;53.622;9.958;2022-10-19T09:06:17;0.10;;;0.10;;
8151;SDS011;4117;53.622;9.958;2022-10-19T09:08:48;0.20;;;0.20;;
8151;SDS011;4117;53.622;9.958;2022-10-19T09:11:17;0.00;;;0.00;;
8151;SDS011;4117;53.622;9.958;2022-10-19T09:13:50;0.10;;;0.10;;
8151;SDS011;4117;53.622;9.958;2022-10-19T09:16:25;0.00;;;0.00;;
8151;SDS011;4117;53.622;9.958;2022-10-19T09:18:52;0.10;;;0.10;;
8151;SDS011;4117;53.622;9.958;2022-10-19T09:21:21;0.10;;;0.10;;
8151;SDS011;4117;53.622;9.958;2022-10-19T09:23:51;0.00;;;0.00;;
8151;SDS011;4117;53.622;9.958;2022-10-19T09:26:26;0.10;;;0.10;;
8151;SDS011;4117;53.622;9.958;2022-10-19T09:28:56;0.10;;;0.10;;
8151;SDS011;4117;53.622;9.958;2022-10-19T09:31:27;0.00;;;0.00;;
8151;SDS011;4117;53.622;9.958;2022-10-19T09:33:57;0.10;;;0.10;;
8151;SDS011;4117;53.622;9.958;2022-10-19T09:36:30;1.30;;;0.63;;
8151;SDS011;4117;53.622;9.958;2022-10-19T09:39:02;0.00;;;0.00;;
8151;SDS011;4117;53.622;9.958;2022-10-19T09:41:30;0.20;;;0.07;;
8151;SDS011;4117;53.622;9.958;2022-10-19T09:43:57;0.20;;;0.20;;
8151;SDS011;4117;53.622;9.958;2022-10-19T09:46:26;0.30;;;0.20;;
8151;SDS011;4117;53.622;9.958;2022-10-19T09:48:58;0.03;;;0.03;;
8151;SDS011;4117;53.622;9.958;2022-10-19T09:51:39;0.20;;;0.20;;
8151;SDS011;4117;53.622;9.958;2022-10-19T09:54:21;0.00;;;0.00;;
8151;SDS011;4117;53.622;9.958;2022-10-19T09:56:53;0.23;;;0.23;;
8151;SDS011;4117;53.622;9.958;2022-10-19T09:59:21;0.17;;;0.17;;
8151;SDS011;4117;53.622;9.958;2022-10-19T10:01:58;0.00;;;0.00;;
8151;SDS011;4117;53.622;9.958;2022-10-19T10:04:28;0.00;;;0.00;;
8151;SDS011;4117;53.622;9.958;2022-10-19T10:06:57;0.00;;;0.00;;
8151;SDS011;4117;53.622;9.958;2022-10-19T10:09:25;0.20;;;0.20;;
8151;SDS011;4117;53.622;9.958;2022-10-19T10:11:55;0.10;;;0.10;;
8151;SDS011;4117;53.622;9.958;2022-10-19T10:14:26;0.07;;;0.07;;
8151;SDS011;4117;53.622;9.958;2022-10-19T10:16:55;0.00;;;0.00;;
8151;SDS011;4117;53.622;9.958;2022-10-19T10:19:27;0.00;;;0.00;;
8151;SDS011;4117;53.622;9.958;2022-10-19T10:21:57;0.10;;;0.10;;
8151;SDS011;4117;53.622;9.958;2022-10-19T10:24:25;0.20;;;0.20;;
8151;SDS011;4117;53.622;9.958;2022-10-19T10:26:54;0.43;;;0.20;;
8151;SDS011;4117;53.622;9.958;2022-10-19T10:29:23;0.17;;;0.17;;
8151;SDS011;4117;53.622;9.958;2022-10-19T10:31:52;0.20;;;0.20;;
8151;SDS011;4117;53.622;9.958;2022-10-19T10:34:28;0.10;;;0.10;;
8151;SDS011;4117;53.622;9.958;2022-10-19T10:36:59;0.10;;;0.10;;
8151;SDS011;4117;53.622;9.958;2022-10-19T10:39:28;0.17;;;0.17;;
8151;SDS011;4117;53.622;9.958;2022-10-19T10:41:56;0.03;;;0.03;;
8151;SDS011;4117;53.622;9.958;2022-10-19T10:44:30;0.20;;;0.20;;
8151;SDS011;4117;53.622;9.958;2022-10-19T10:47:01;0.00;;;0.00;;
8151;SDS011;4117;53.622;9.958;2022-10-19T10:49:31;0.10;;;0.10;;
8151;SDS011;4117;53.622;9.958;2022-10-19T10:52:02;0.17;;;0.17;;
8151;SDS011;4117;53.622;9.958;2022-10-19T10:54:31;0.17;;;0.17;;
8151;SDS011;4117;53.622;9.958;2022-10-19T10:57:02;0.40;;;0.23;;
8151;SDS011;4117;53.622;9.958;2022-10-19T10:59:36;0.10;;;0.10;;
8151;SDS011;4117;53.622;9.958;2022-10-19T11:02:10;0.50;;;0.40;;
8151;SDS011;4117;53.622;9.958;2022-10-19T11:04:55;0.27;;;0.27;;
8151;SDS011;4117;53.622;9.958;2022-10-19T11:07:28;0.37;;;0.20;;
8151;SDS011;4117;53.622;9.958;2022-10-19T11:09:58;0.10;;;0.10;;
8151;SDS011;4117;53.622;9.958;2022-10-19T11:12:30;0.30;;;0.10;;
8151;SDS011;4117;53.622;9.958;2022-10-19T11:15:03;0.20;;;0.20;;
8151;SDS011;4117;53.622;9.958;2022-10-19T11:17:36;0.17;;;0.17;;
8151;SDS011;4117;53.622;9.958;2022-10-19T11:20:12;0.10;;;0.10;;
8151;SDS011;4117;53.622;9.958;2022-10-19T11:22:43;0.00;;;0.00;;
8151;SDS011;4117;53.622;9.958;2022-10-19T11:25:21;0.23;;;0.23;;
8151;SDS011;4117;53.622;9.958;2022-10-19T11:27:57;0.10;;;0.10;;
8151;SDS011;4117;53.622;9.958;2022-10-19T11:30:33;0.13;;;0.13;;
8151;SDS011;4117;53.622;9.958;2022-10-19T11:33:06;0.40;;;0.33;;
8151;SDS011;4117;53.622;9.958;2022-10-19T11:35:46;0.07;;;0.07;;
8151;SDS011;4117;53.622;9.958;2022-10-19T11:38:30;0.20;;;0.20;;
8151;SDS011;4117;53.622;9.958;2022-10-19T11:41:12;0.10;;;0.10;;
8151;SDS011;4117;53.622;9.958;2022-10-19T11:43:59;0.40;;;0.40;;
8151;SDS011;4117;53.622;9.958;2022-10-19T11:46:38;0.40;;;0.30;;
8151;SDS011;4117;53.622;9.958;2022-10-19T11:49:22;0.53;;;0.53;;
8151;SDS011;4117;53.622;9.958;2022-10-19T11:52:00;0.00;;;0.00;;
8151;SDS011;4117;53.622;9.958;2022-10-19T11:54:41;0.50;;;0.40;;
8151;SDS011;4117;53.622;9.958;2022-10-19T11:57:20;0.30;;;0.30;;
8151;SDS011;4117;53.622;9.958;2022-10-19T11:59:57;2.10;;;0.20;;
8151;SDS011;4117;53.622;9.958;2022-10-19T12:02:41;0.10;;;0.10;;
8151;SDS011;4117;53.622;9.958;2022-10-19T12:05:33;0.10;;;0.10;;
8151;SDS011;4117;53.622;9.958;2022-10-19T12:08:09;0.10;;;0.10;;
8151;SDS011;4117;53.622;9.958;2022-10-19T12:10:52;0.17;;;0.10;;
8151;SDS011;4117;53.622;9.958;2022-10-19T12:13:37;0.47;;;0.13;;
8151;SDS011;4117;53.622;9.958;2022-10-19T12:16:07;1.10;;;0.10;;
8151;SDS011;4117;53.622;9.958;2022-10-19T12:18:36;0.23;;;0.17;;
8151;SDS011;4117;53.622;9.958;2022-10-19T12:21:07;0.60;;;0.37;;
8151;SDS011;4117;53.622;9.958;2022-10-19T12:23:37;0.40;;;0.40;;
8151;SDS011;4117;53.622;9.958;2022-10-19T12:26:10;0.10;;;0.10;;
8151;SDS011;4117;53.622;9.958;2022-10-19T12:28:45;0.20;;;0.20;;
8151;SDS011;4117;53.622;9.958;2022-10-19T12:31:16;0.00;;;0.00;;
8151;SDS011;4117;53.622;9.958;2022-10-19T12:33:44;0.10;;;0.10;;
8151;SDS011;4117;53.622;9.958;2022-10-19T12:36:22;0.17;;;0.10;;
8151;SDS011;4117;53.622;9.958;2022-10-19T12:38:55;0.20;;;0.20;;
8151;SDS011;4117;53.622;9.958;2022-10-19T12:41:37;0.10;;;0.10;;
8151;SDS011;4117;53.622;9.958;2022-10-19T12:44:22;0.00;;;0.00;;
8151;SDS011;4117;53.622;9.958;2022-10-19T12:47:05;0.10;;;0.10;;
8151;SDS011;4117;53.622;9.958;2022-10-19T12:49:42;0.10;;;0.10;;
8151;SDS011;4117;53.622;9.958;2022-10-19T12:52:09;0.20;;;0.10;;
8151;SDS011;4117;53.622;9.958;2022-10-19T12:54:38;0.23;;;0.10;;
8151;SDS011;4117;53.622;9.958;2022-10-19T12:57:22;0.10;;;0.10;;
8151;SDS011;4117;53.622;9.958;2022-10-19T12:59:59;0.10;;;0.10;;
8151;SDS011;4117;53.622;9.958;2022-10-19T13:02:29;0.33;;;0.20;;
8151;SDS011;4117;53.622;9.958;2022-10-19T13:04:59;0.10;;;0.10;;
8151;SDS011;4117;53.622;9.958;2022-10-19T13:07:26;0.00;;;0.00;;
8151;SDS011;4117;53.622;9.958;2022-10-19T13:09:58;0.97;;;0.30;;
8151;SDS011;4117;53.622;9.958;2022-10-19T13:12:39;0.00;;;0.00;;
8151;SDS011;4117;53.622;9.958;2022-10-19T13:21:48;0.67;;;0.30;;
8151;SDS011;4117;53.622;9.958;2022-10-19T13:24:36;0.60;;;0.20;;
8151;SDS011;4117;53.622;9.958;2022-10-19T13:27:22;0.40;;;0.20;;
8151;SDS011;4117;53.622;9.958;2022-10-19T13:29:52;0.07;;;0.07;;
8151;SDS011;4117;53.622;9.958;2022-10-19T13:35:20;0.10;;;0.10;;
8151;SDS011;4117;53.622;9.958;2022-10-19T13:41:04;0.50;;;0.10;;
8151;SDS011;4117;53.622;9.958;2022-10-19T13:43:37;0.10;;;0.10;;
8151;SDS011;4117;53.622;9.958;2022-10-19T13:46:15;0.00;;;0.00;;
8151;SDS011;4117;53.622;9.958;2022-10-19T13:49:01;0.60;;;0.57;;
8151;SDS011;4117;53.622;9.958;2022-10-19T13:51:51;0.20;;;0.20;;
8151;SDS011;4117;53.622;9.958;2022-10-19T13:54:36;0.10;;;0.10;;
8151;SDS011;4117;53.622;9.958;2022-10-19T13:57:21;0.10;;;0.10;;
8151;SDS011;4117;53.622;9.958;2022-10-19T13:59:59;0.00;;;0.00;;
8151;SDS011;4117;53.622;9.958;2022-10-19T14:02:40;0.20;;;0.20;;
8151;SDS011;4117;53.622;9.958;2022-10-19T14:05:23;0.17;;;0.17;;
8151;SDS011;4117;53.622;9.958;2022-10-19T14:08:16;0.30;;;0.30;;
8151;SDS011;4117;53.622;9.958;2022-10-19T14:10:57;0.37;;;0.37;;
8151;SDS011;4117;53.622;9.958;2022-10-19T14:13:25;0.43;;;0.40;;
8151;SDS011;4117;53.622;9.958;2022-10-19T14:15:52;0.23;;;0.23;;
8151;SDS011;4117;53.622;9.958;2022-10-19T14:18:24;0.50;;;0.40;;
8151;SDS011;4117;53.622;9.958;2022-10-19T14:20:55;0.30;;;0.30;;
8151;SDS011;4117;53.622;9.958;2022-10-19T14:23:23;0.30;;;0.30;;
8151;SDS011;4117;53.622;9.958;2022-10-19T14:25:52;0.10;;;0.10;;
8151;SDS011;4117;53.622;9.958;2022-10-19T14:28:21;0.40;;;0.30;;
8151;SDS011;4117;53.622;9.958;2022-10-19T14:30:56;0.20;;;0.20;;
8151;SDS011;4117;53.622;9.958;2022-10-19T14:33:26;0.10;;;0.10;;
8151;SDS011;4117;53.622;9.958;2022-10-19T14:35:54;0.00;;;0.00;;
8151;SDS011;4117;53.622;9.958;2022-10-19T14:38:23;0.23;;;0.20;;
8151;SDS011;4117;53.622;9.958;2022-10-19T14:40:54;0.20;;;0.20;;
8151;SDS011;4117;53.622;9.958;2022-10-19T14:43:22;0.10;;;0.10;;
8151;SDS011;4117;53.622;9.958;2022-10-19T14:46:03;0.23;;;0.23;;
8151;SDS011;4117;53.622;9.958;2022-10-19T14:48:37;2.23;;;0.30;;
8151;SDS011;4117;53.622;9.958;2022-10-19T14:51:06;0.47;;;0.27;;
8151;SDS011;4117;53.622;9.958;2022-10-19T14:53:40;0.67;;;0.60;;
8151;SDS011;4117;53.622;9.958;2022-10-19T14:56:11;0.10;;;0.10;;
8151;SDS011;4117;53.622;9.958;2022-10-19T14:58:43;0.50;;;0.40;;
8151;SDS011;4117;53.622;9.958;2022-10-19T15:01:12;0.30;;;0.20;;
8151;SDS011;4117;53.622;9.958;2022-10-19T15:03:43;0.87;;;0.47;;
8151;SDS011;4117;53.622;9.958;2022-10-19T15:06:12;1.00;;;0.40;;
8151;SDS011;4117;53.622;9.958;2022-10-19T15:08:44;0.53;;;0.33;;
8151;SDS011;4117;53.622;9.958;2022-10-19T15:11:22;0.50;;;0.47;;
8151;SDS011;4117;53.622;9.958;2022-10-19T15:13:54;1.03;;;0.83;;
8151;SDS011;4117;53.622;9.958;2022-10-19T15:16:41;1.83;;;0.80;;
8151;SDS011;4117;53.622;9.958;2022-10-19T15:19:16;0.40;;;0.30;;
8151;SDS011;4117;53.622;9.958;2022-10-19T15:21:46;1.03;;;0.40;;
8151;SDS011;4117;53.622;9.958;2022-10-19T15:24:30;0.37;;;0.30;;
8151;SDS011;4117;53.622;9.958;2022-10-19T15:27:07;1.30;;;0.40;;
8151;SDS011;4117;53.622;9.958;2022-10-19T15:29:35;2.63;;;0.90;;
8151;SDS011;4117;53.622;9.958;2022-10-19T15:32:12;1.23;;;0.60;;
8151;SDS011;4117;53.622;9.958;2022-10-19T15:34:41;0.93;;;0.60;;
8151;SDS011;4117;53.622;9.958;2022-10-19T15:37:12;1.57;;;0.50;;
8151;SDS011;4117;53.622;9.958;2022-10-19T15:39:43;0.60;;;0.60;;
8151;SDS011;4117;53.622;9.958;2022-10-19T15:44:59;1.50;;;0.70;;
8151;SDS011;4117;53.622;9.958;2022-10-19T15:47:26;2.33;;;0.80;;
8151;SDS011;4117;53.622;9.958;2022-10-19T15:49:55;1.50;;;1.07;;
8151;SDS011;4117;53.622;9.958;2022-10-19T15:52:24;2.07;;;1.37;;
8151;SDS011;4117;53.622;9.958;2022-10-19T15:54:53;1.70;;;0.90;;
8151;SDS011;4117;53.622;9.958;2022-10-19T15:57:21;1.27;;;0.83;;
8151;SDS011;4117;53.622;9.958;2022-10-19T15:59:51;1.67;;;0.73;;
8151;SDS011;4117;53.622;9.958;2022-10-19T16:02:18;1.03;;;0.70;;